• Join FlightAware (Why Join?)
  • Login
  • US Flag 
01:01PM EDT


 

Airport Tracker/Info


-or-


 

Live Flight TrackerFlight Track Log ✈ SWA920 ✈ 19-Apr-2013 ✈ KBWI - KBOS

Flight Track Log - Related Links

Times and Time Zones

All times are in EDT time to prevent confusion due to time zone crossing. See the SWA920 flight status page for this flight to view local times or setup timezone preferences in your user account.

Time Position Orientation Groundspeed Altitude Reporting Facility
EDT Latitude Longitude Course Direction KTS MPH feet Rate Location/Type
11:34PM 39.1411 -76.7611 108° East 168 193 5,700  Level Washington Center
11:35PM 39.1211 -76.6778 107° East 95 109 8,900 3,540 Climbing Washington Center
11:36PM 39.1303 -76.5628 84° East 177 204 12,800 3,360 Climbing Washington Center
11:37PM 39.1356 -76.4319 87° East 306 352 15,700 3,000 Climbing Washington Center
11:38PM 39.1428 -76.2956 86° East 344 396 18,800 3,180 Climbing Washington Center
11:39PM 39.1559 -76.5792 284° West  Level FlightAware Approximate
11:39PM 39.1686 -76.1322 78° East 397 457 22,100  Level Washington Center
11:40PM 39.1566 -76.5597 108° East  Level FlightAware Approximate
11:40PM 39.2461 -75.9989 53° Northeast 426 490 23,800  Level Washington Center
11:41PM 39.3342 -75.8600 51° Northeast 460 529 26,200 2,640 Climbing Washington Center
11:42PM 39.4239 -75.7233 50° Northeast 483 556 29,100 2,340 Climbing Washington Center
11:43PM 39.5156 -75.5836 50° Northeast 498 573 30,900 2,100 Climbing Washington Center
11:44PM 39.6072 -75.4408 50° Northeast 503 579 33,300 1,920 Climbing Washington Center
11:46PM 39.7703 -75.1894 50° Northeast 490 564 36,500 1,440 Climbing New York Center
11:47PM 39.8481 -75.0539 53° Northeast 496 571 37,500 1,080 Climbing New York Center
11:48PM 39.9386 -74.9131 50° Northeast 501 577 38,800 960 Climbing New York Center
11:49PM 40.0331 -74.7722 49° Northeast 506 582 39,500 660 Climbing New York Center
11:50PM 40.1344 -74.6097 51° Northeast 516 594 40,200 720 Climbing New York Center
11:51PM 40.2222 -74.4706 50° Northeast 528 608 41,000  Climbing New York Center
11:52PM 40.3167 -74.3178 51° Northeast 528 608 40,200 -1,680 Descending New York Center
11:53PM 40.4106 -74.1728 50° Northeast 528 608 37,700 -2,760 Descending New York Center
11:54PM 40.5022 -74.0244 51° Northeast 523 602 34,800 -3,120 Descending New York Center
11:55PM 40.5917 -73.8756 52° Northeast 523 602 31,600 -1,200 Descending New York Center
11:57PM 40.6586 -73.7040 49° Northeast  Level FlightAware Approximate
12:04AM 41.2202 -72.8736 64° Northeast  Level FlightAware Approximate
12:04AM 41.2914 -72.7219 63° Northeast 476 548 24,000  Level Boston Center
12:05AM 41.2732 -72.7285 64° Northeast  Level FlightAware Approximate
12:05AM 41.3625 -72.5342 63° Northeast 476 548 24,000  Level Boston Center
12:06AM 41.3260 -72.5831 64° Northeast  Level FlightAware Approximate
12:06AM 41.4167 -72.3764 65° Northeast 470 541 24,000  Level Boston Center
12:07AM 41.3851 -72.4451 66° East  Level FlightAware Approximate
12:07AM 41.4728 -72.2239 64° Northeast 460 529 24,000  Level Boston Center
12:08AM 41.4343 -72.2973 66° East  Level FlightAware Approximate
12:08AM 41.5328 -72.0658 63° Northeast 455 524 23,000  Level Boston Center
12:09AM 41.4857 -72.1507 63° Northeast  Level FlightAware Approximate
12:09AM 41.5842 -71.9072 67° East 461 531 22,000  Level Boston Center
12:11AM 41.6661 -71.6314 68° East 450 518 19,200 -1,980 Descending Boston Center
12:12AM 41.7208 -71.4444 69° East 450 518 16,100 -2,640 Descending Boston Center
12:13AM 41.7778 -71.3069 61° Northeast 434 499 14,000 -2,340 Descending Boston Center
12:14AM 41.8347 -71.1694 61° Northeast 419 482 11,500 -1,500 Descending Boston Center
12:15AM 41.8875 -71.0458 60° Northeast 408 470 11,000 -300 Descending Boston Center
12:16AM 41.9361 -70.9358 59° Northeast 380 437 11,000 -360 Level Boston Center
12:17AM 42.0000 -70.8000 58° Northeast 373 429 10,400 -840 Descending KA90
12:18AM 42.0500 -70.7000 56° Northeast 344 396 9,400 -1,200 Descending KA90
12:19AM 42.1167 -70.6167 43° Northeast 344 396 8,000 -1,380 Descending KA90
12:20AM 42.2000 -70.6167 360° North 314 361 6,700 -1,440 Descending KA90
12:21AM 42.2833 -70.6333 352° North 318 366 5,300 -1,440 Descending KA90
12:22AM 42.3667 -70.6333 360° North 318 366 4,000 -660 Descending KA90
12:23AM 42.4333 -70.6833 331° Northwest 259 298 4,000  Level KA90
12:23AM 42.5000 -70.7333 331° Northwest 256 295 4,000 -540 Level KA90
12:24AM 42.5500 -70.7833 324° Northwest 240 276 3,000 -540 Descending KA90
12:25AM 42.5500 -70.8500 270° West 194 223 3,000  Level KA90
12:26AM 42.5333 -70.9167 251° West 179 206 3,000 -360 Level KA90
12:27AM 42.4833 -70.9500 206° Southwest 188 216 2,300 -720 Descending KA90
12:28AM 42.4500 -70.9667 200° South 131 151 1,600 -600 Descending KA90
12:29AM 42.4167 -70.9833 200° South 111 128 1,100 -600 Descending KA90
12:30AM 42.4000 -70.9833 180° South 122 140 500 -660 Descending KA90